Time;durP1;ratioP1;P1;durP2;ratioP2;P2;SDS_P1;SDS_P2;PMS_P1;PMS_P2;Temp;Humidity;BMP_temperature;BMP_pressure;BME280_temperature;BME280_humidity;BME280_pressure;Samples;Min_cycle;Max_cycle;Signal;HPM_P1;HPM_P2
2022/11/10 00:01:49;;;;;;;4.00;2.70;;;11.20;99.90;;;;;;5033980;28;20180;-87
2022/11/10 00:04:33;;;;;;;4.63;2.70;;;11.20;99.90;;;;;;5034105;28;20250;-87
2022/11/10 00:07:17;;;;;;;4.43;1.90;;;11.10;99.90;;;;;;5013490;28;20240;-87
2022/11/10 00:10:03;;;;;;;5.57;2.70;;;11.10;99.90;;;;;;5032242;28;20184;-87
2022/11/10 00:12:47;;;;;;;3.57;2.80;;;11.20;99.90;;;;;;5033867;28;20265;-87
2022/11/10 00:18:35;;;;;;;4.80;3.00;;;11.20;99.90;;;;;;5034756;28;20277;-87
2022/11/10 00:21:19;;;;;;;4.43;2.50;;;11.20;99.90;;;;;;5033775;28;20227;-87
2022/11/10 00:24:04;;;;;;;5.13;3.27;;;11.10;99.90;;;;;;5033818;28;20264;-87
2022/11/10 00:26:49;;;;;;;5.07;2.93;;;11.10;99.90;;;;;;5034466;28;20185;-87
2022/11/10 00:29:34;;;;;;;3.53;2.50;;;11.20;99.90;;;;;;5033541;28;20253;-87
2022/11/10 00:32:19;;;;;;;3.67;2.40;;;11.20;99.90;;;;;;5032036;28;20195;-87
2022/11/10 00:35:04;;;;;;;5.13;2.50;;;11.10;99.90;;;;;;5033559;28;20270;-87
2022/11/10 00:37:49;;;;;;;2.33;1.80;;;11.10;99.90;;;;;;5047323;28;20228;-87
2022/11/10 00:40:33;;;;;;;2.23;1.70;;;11.00;99.90;;;;;;5034504;28;20180;-87
2022/11/10 00:43:17;;;;;;;3.40;1.60;;;11.00;99.90;;;;;;5034304;28;20169;-87
2022/11/10 00:46:02;;;;;;;2.93;1.63;;;11.00;99.90;;;;;;5047563;28;20230;-87
2022/11/10 00:48:46;;;;;;;2.80;1.37;;;11.00;99.90;;;;;;5047156;28;20191;-87
2022/11/10 00:51:31;;;;;;;4.87;1.50;;;11.00;99.90;;;;;;5047432;28;20207;-87
2022/11/10 00:54:15;;;;;;;2.97;1.37;;;11.00;99.90;;;;;;5047131;28;20262;-87
2022/11/10 00:57:00;;;;;;;1.93;1.33;;;11.00;99.90;;;;;;5046945;28;20199;-87
2022/11/10 00:59:44;;;;;;;2.20;1.40;;;11.00;99.90;;;;;;5047115;28;20175;-87
2022/11/10 01:02:29;;;;;;;3.87;1.50;;;11.00;99.90;;;;;;5044995;28;20219;-87
2022/11/10 01:05:14;;;;;;;3.50;1.80;;;11.00;99.90;;;;;;5029665;28;20261;-87
2022/11/10 01:07:58;;;;;;;3.77;1.57;;;11.00;99.90;;;;;;5047034;28;20233;-87
2022/11/10 01:10:43;;;;;;;4.63;1.37;;;10.90;99.90;;;;;;5046830;28;20259;-87
2022/11/10 01:13:28;;;;;;;2.13;1.43;;;10.90;99.90;;;;;;5046989;28;20192;-87
2022/11/10 01:16:18;;;;;;;2.37;1.60;;;10.90;99.90;;;;;;5032717;28;20219;-87
2022/11/10 01:19:03;;;;;;;2.13;1.30;;;10.90;99.90;;;;;;5031725;28;20230;-87
2022/11/10 01:21:50;;;;;;;2.30;1.60;;;10.90;99.90;;;;;;5032773;28;20176;-85
2022/11/10 01:24:34;;;;;;;1.70;1.30;;;10.80;99.90;;;;;;5032286;28;20302;-85
2022/11/10 01:27:19;;;;;;;2.13;1.30;;;10.80;99.90;;;;;;5032299;28;20225;-85
2022/11/10 01:30:04;;;;;;;2.03;1.30;;;10.80;99.90;;;;;;5032585;28;20184;-85
2022/11/10 01:32:48;;;;;;;2.03;1.30;;;10.80;99.90;;;;;;5032769;28;20320;-85
2022/11/10 01:35:33;;;;;;;2.63;1.37;;;10.70;99.90;;;;;;5032023;28;20226;-85
2022/11/10 01:38:18;;;;;;;1.97;1.20;;;10.60;99.90;;;;;;5045986;28;20164;-85
2022/11/10 01:41:05;;;;;;;2.03;1.50;;;10.50;99.90;;;;;;5032053;28;20183;-85
2022/11/10 01:43:50;;;;;;;2.13;1.10;;;10.40;99.90;;;;;;5032184;28;20257;-85
2022/11/10 01:46:34;;;;;;;2.33;1.80;;;10.40;99.90;;;;;;5032312;28;20229;-86
2022/11/10 01:49:23;;;;;;;2.73;1.50;;;10.30;99.90;;;;;;5032101;28;20262;-85
2022/11/10 01:52:13;;;;;;;3.93;1.50;;;10.20;99.90;;;;;;5012277;28;20261;-85
2022/11/10 01:54:57;;;;;;;2.73;1.30;;;10.20;99.90;;;;;;5025711;28;20250;-85
2022/11/10 01:57:42;;;;;;;1.67;1.47;;;10.10;99.90;;;;;;5031618;28;20198;-85
2022/11/10 02:00:27;;;;;;;2.83;1.57;;;10.10;99.90;;;;;;5031976;28;20182;-85
2022/11/10 02:03:15;;;;;;;4.00;1.70;;;10.10;99.90;;;;;;5032644;28;20198;-85
2022/11/10 02:06:00;;;;;;;2.47;1.67;;;10.00;99.90;;;;;;5028895;28;20205;-85
2022/11/10 02:08:45;;;;;;;2.40;1.53;;;10.00;99.90;;;;;;5045684;28;20301;-85
2022/11/10 02:11:30;;;;;;;2.60;1.63;;;10.00;99.90;;;;;;5045836;28;20182;-85
2022/11/10 02:14:15;;;;;;;2.43;1.53;;;9.90;99.90;;;;;;5045748;28;20256;-85
2022/11/10 02:16:59;;;;;;;4.43;1.87;;;9.90;99.90;;;;;;5032445;28;20225;-85
2022/11/10 02:19:44;;;;;;;3.03;1.77;;;9.80;99.90;;;;;;5031533;28;20340;-85
2022/11/10 02:22:30;;;;;;;5.10;1.83;;;9.70;99.90;;;;;;5031957;28;20166;-85
2022/11/10 02:25:18;;;;;;;2.83;1.80;;;9.60;99.90;;;;;;5032490;28;20213;-85
2022/11/10 02:28:03;;;;;;;3.07;1.70;;;9.50;99.90;;;;;;5012082;28;20227;-85
2022/11/10 02:30:47;;;;;;;4.70;2.00;;;9.50;99.90;;;;;;5011528;28;20174;-85
2022/11/10 02:33:32;;;;;;;3.10;1.93;;;9.50;99.90;;;;;;5014678;28;20209;-85
2022/11/10 02:36:16;;;;;;;2.67;1.60;;;9.40;99.90;;;;;;5031766;28;20287;-85
2022/11/10 02:39:01;;;;;;;2.87;1.80;;;9.50;99.90;;;;;;5045535;28;20542;-85
2022/11/10 02:41:45;;;;;;;3.67;2.00;;;9.50;99.90;;;;;;5045545;28;20190;-85
2022/11/10 02:44:30;;;;;;;2.43;2.00;;;9.50;99.90;;;;;;5031539;28;20255;-85
2022/11/10 02:47:15;;;;;;;3.53;2.20;;;9.40;99.90;;;;;;5031386;28;20225;-85
2022/11/10 02:49:59;;;;;;;5.27;2.27;;;9.40;99.90;;;;;;5030823;28;20230;-85
2022/11/10 02:52:44;;;;;;;3.50;1.97;;;9.30;99.90;;;;;;5029773;28;20654;-85
2022/11/10 02:55:29;;;;;;;2.37;1.40;;;9.30;99.90;;;;;;5030343;28;20328;-85
2022/11/10 02:58:13;;;;;;;2.20;1.60;;;9.20;99.90;;;;;;5030869;28;20244;-85
2022/11/10 03:00:58;;;;;;;2.90;2.07;;;9.20;99.90;;;;;;5031511;28;20197;-85
2022/11/10 03:03:42;;;;;;;2.73;1.70;;;9.10;99.90;;;;;;5025077;28;20214;-85
2022/11/10 03:06:27;;;;;;;2.60;1.80;;;8.90;99.90;;;;;;5013187;28;20194;-85
2022/11/10 03:09:11;;;;;;;6.30;2.03;;;8.90;99.90;;;;;;5030880;28;20260;-85
2022/11/10 03:11:56;;;;;;;3.37;2.10;;;8.90;99.90;;;;;;5031026;28;20225;-85
2022/11/10 03:14:40;;;;;;;2.63;2.20;;;8.80;99.90;;;;;;5012741;28;20217;-85
2022/11/10 03:17:25;;;;;;;3.13;1.70;;;8.80;99.90;;;;;;5025160;28;20226;-85
2022/11/10 03:20:10;;;;;;;2.90;1.80;;;8.70;99.90;;;;;;5025511;28;20203;-85
2022/11/10 03:23:00;;;;;;;6.80;2.40;;;8.80;99.90;;;;;;5025400;28;20701;-85
2022/11/10 03:25:45;;;;;;;4.83;2.37;;;8.70;99.90;;;;;;5012305;28;20699;-85
2022/11/10 03:28:30;;;;;;;3.10;2.47;;;8.70;99.90;;;;;;5024936;28;20238;-85
2022/11/10 03:31:14;;;;;;;4.53;2.67;;;8.70;99.90;;;;;;5030911;28;20182;-85
2022/11/10 03:33:59;;;;;;;2.97;1.93;;;8.80;99.90;;;;;;5030091;28;20218;-85
2022/11/10 03:36:43;;;;;;;5.43;2.10;;;8.80;99.90;;;;;;5030733;28;20718;-85
2022/11/10 03:39:28;;;;;;;1.87;1.70;;;8.90;99.90;;;;;;5032175;28;20262;-85
2022/11/10 03:42:13;;;;;;;1.97;1.60;;;8.90;99.90;;;;;;5046888;28;20278;-85
2022/11/10 03:44:57;;;;;;;2.17;1.80;;;8.90;99.90;;;;;;5048362;28;20205;-85
2022/11/10 03:47:47;;;;;;;2.17;1.97;;;8.80;99.90;;;;;;5035706;28;20174;-85
2022/11/10 03:50:31;;;;;;;2.50;1.70;;;8.80;99.90;;;;;;5035896;28;20189;-85
2022/11/10 03:53:16;;;;;;;3.20;1.80;;;8.80;99.90;;;;;;5034698;28;20178;-84
2022/11/10 03:56:05;;;;;;;5.13;1.80;;;8.70;99.90;;;;;;5034736;28;20349;-85
2022/11/10 03:58:50;;;;;;;2.27;2.07;;;8.70;99.90;;;;;;5034499;28;20171;-85
2022/11/10 04:01:34;;;;;;;2.03;1.93;;;8.60;99.90;;;;;;5034541;28;20587;-85
2022/11/10 04:10:28;;;;;;;1.93;1.60;;;8.50;99.90;;;;;;5035605;28;20266;-85
2022/11/10 04:16:15;;;;;;;13.07;1.77;;;8.50;99.90;;;;;;5035580;28;20205;-85
2022/11/10 04:19:00;;;;;;;41.03;2.80;;;8.30;99.90;;;;;;5033968;28;20178;-85
2022/11/10 04:21:44;;;;;;;13.20;1.93;;;8.10;99.90;;;;;;5034320;28;20170;-85
2022/11/10 04:24:29;;;;;;;57.97;3.13;;;7.80;99.90;;;;;;5034294;28;20594;-85
2022/11/10 04:27:13;;;;;;;57.50;2.67;;;7.70;99.90;;;;;;5033999;28;20191;-85
2022/11/10 04:29:58;;;;;;;12.97;1.60;;;7.50;99.90;;;;;;5034023;28;20240;-85
2022/11/10 04:32:43;;;;;;;15.27;1.73;;;7.40;99.90;;;;;;5034101;28;20212;-85
2022/11/10 04:35:27;;;;;;;2.67;1.23;;;7.40;99.90;;;;;;5033585;28;20225;-85
2022/11/10 04:38:12;;;;;;;9.10;1.30;;;7.50;99.90;;;;;;5045428;28;20166;-85
2022/11/10 04:40:57;;;;;;;20.83;1.83;;;7.50;99.90;;;;;;5048955;28;20174;-86
2022/11/10 04:43:42;;;;;;;23.70;2.50;;;7.40;99.90;;;;;;5033649;28;20237;-85
2022/11/10 04:46:58;;;;;;;32.60;3.10;;;7.20;99.90;;;;;;5033856;28;20253;-86
2022/11/10 04:49:44;;;;;;;18.53;2.43;;;7.10;99.90;;;;;;5033786;28;20182;-86
2022/11/10 04:52:45;;;;;;;11.90;2.30;;;7.10;99.90;;;;;;5033187;28;20244;-87
2022/11/10 04:55:31;;;;;;;11.60;2.10;;;7.00;99.90;;;;;;5034005;28;20212;-86
2022/11/10 04:58:16;;;;;;;36.87;3.57;;;7.00;99.90;;;;;;5013045;28;20185;-86
2022/11/10 05:01:04;;;;;;;11.60;2.80;;;7.10;99.90;;;;;;5013673;28;20178;-87
2022/11/10 05:03:50;;;;;;;11.47;2.67;;;7.20;99.90;;;;;;5013088;28;20218;-86
2022/11/10 05:06:34;;;;;;;10.63;2.20;;;7.30;99.90;;;;;;5012859;28;20189;-86
2022/11/10 05:09:19;;;;;;;6.97;2.27;;;7.30;99.90;;;;;;5015317;28;20238;-86
2022/11/10 05:12:03;;;;;;;11.07;2.83;;;7.30;99.90;;;;;;5033169;28;20170;-87
2022/11/10 05:14:48;;;;;;;4.83;2.83;;;7.20;99.90;;;;;;5032685;28;20363;-86
2022/11/10 05:17:33;;;;;;;3.20;2.20;;;7.10;99.90;;;;;;5032586;28;20686;-86
2022/11/10 05:20:18;;;;;;;6.23;1.77;;;7.20;99.90;;;;;;5033064;28;20177;-86
2022/11/10 05:26:09;;;;;;;26.97;9.23;;;7.00;99.90;;;;;;5033908;28;20184;-87
2022/11/10 05:28:54;;;;;;;12.60;3.10;;;6.90;99.90;;;;;;5032358;28;20171;-86
2022/11/10 05:31:38;;;;;;;4.37;2.27;;;6.80;99.90;;;;;;5032647;28;20181;-87
2022/11/10 05:34:23;;;;;;;8.00;2.13;;;6.70;99.90;;;;;;5032582;28;20211;-87
2022/11/10 05:37:07;;;;;;;6.23;2.87;;;6.70;99.90;;;;;;5032242;28;20284;-86
2022/11/10 05:39:52;;;;;;;5.00;2.77;;;6.70;99.90;;;;;;5032369;28;20182;-87
2022/11/10 05:42:48;;;;;;;5.77;2.60;;;6.80;99.90;;;;;;5032242;28;20189;-87
2022/11/10 05:45:32;;;;;;;7.27;3.00;;;6.80;99.90;;;;;;5012592;28;20221;-86
2022/11/10 05:48:17;;;;;;;4.73;2.63;;;6.70;99.90;;;;;;5012606;28;20276;-87
2022/11/10 05:51:05;;;;;;;8.57;2.73;;;6.70;99.90;;;;;;5039066;28;20181;-87
2022/11/10 05:53:50;;;;;;;2.90;2.50;;;6.60;99.90;;;;;;5026425;28;20216;-88
2022/11/10 05:56:35;;;;;;;4.40;2.57;;;6.60;99.90;;;;;;5031669;28;20196;-87
2022/11/10 05:59:19;;;;;;;7.43;2.90;;;6.60;99.90;;;;;;5045521;28;20231;-87
2022/11/10 06:02:03;;;;;;;9.23;2.60;;;6.80;99.90;;;;;;5045973;28;20173;-87
2022/11/10 06:04:48;;;;;;;10.00;2.93;;;6.80;99.90;;;;;;5029799;28;20221;-87
2022/11/10 06:07:33;;;;;;;8.67;3.10;;;6.80;99.90;;;;;;5020652;28;20212;-87
2022/11/10 06:10:18;;;;;;;12.80;2.80;;;6.70;99.90;;;;;;5032256;28;20195;-87
2022/11/10 06:13:10;;;;;;;7.93;4.60;;;6.60;99.90;;;;;;5032166;28;20209;-87
2022/11/10 06:15:54;;;;;;;10.30;4.20;;;6.70;99.90;;;;;;5031400;28;20208;-87
2022/11/10 06:18:39;;;;;;;6.90;3.30;;;6.70;99.90;;;;;;5031497;28;20174;-87
2022/11/10 06:21:24;;;;;;;6.37;3.00;;;6.70;99.90;;;;;;5024292;28;20201;-87
2022/11/10 06:24:09;;;;;;;12.10;3.13;;;6.70;99.90;;;;;;5011411;28;20295;-87
2022/11/10 06:27:09;;;;;;;11.83;3.40;;;6.60;99.90;;;;;;5030806;28;20240;-87
2022/11/10 06:29:54;;;;;;;8.47;3.47;;;6.60;99.90;;;;;;5032054;28;20172;-87
2022/11/10 06:32:42;;;;;;;7.03;3.20;;;6.60;99.90;;;;;;5027215;28;20185;-87
2022/11/10 06:35:27;;;;;;;7.90;3.50;;;6.60;99.90;;;;;;5027634;28;20571;-86
2022/11/10 06:38:12;;;;;;;7.37;3.40;;;6.60;99.90;;;;;;5031505;28;20177;-87
2022/11/10 06:40:56;;;;;;;12.27;3.63;;;6.60;99.90;;;;;;5028112;28;20238;-87
2022/11/10 06:43:41;;;;;;;5.37;3.27;;;6.70;99.90;;;;;;5031918;28;20236;-88
2022/11/10 06:46:26;;;;;;;4.47;3.43;;;6.70;99.90;;;;;;5031576;28;20231;-86
2022/11/10 06:49:10;;;;;;;9.10;3.97;;;6.80;99.90;;;;;;5027837;28;20181;-86
2022/11/10 06:51:55;;;;;;;4.10;3.63;;;6.80;99.90;;;;;;5011853;28;20178;-86
2022/11/10 06:54:40;;;;;;;5.77;4.40;;;6.80;99.90;;;;;;5012202;28;20208;-87
2022/11/10 06:57:26;;;;;;;8.73;4.03;;;6.80;99.90;;;;;;5011106;28;20221;-87
2022/11/10 07:00:12;;;;;;;5.57;4.13;;;6.90;99.90;;;;;;4997911;28;20258;-86
2022/11/10 07:03:05;;;;;;;4.73;4.10;;;7.00;99.90;;;;;;5011018;28;20255;-87
2022/11/10 07:05:50;;;;;;;8.37;4.63;;;7.00;99.90;;;;;;5040616;28;20193;-87
2022/11/10 07:08:35;;;;;;;7.10;4.93;;;7.10;99.90;;;;;;5051012;28;20170;-86
2022/11/10 07:11:19;;;;;;;4.37;3.97;;;7.20;99.90;;;;;;5045787;28;20284;-87
2022/11/10 07:14:04;;;;;;;8.07;4.10;;;7.20;99.90;;;;;;5032061;28;20263;-86
2022/11/10 07:16:48;;;;;;;7.40;4.30;;;7.30;99.90;;;;;;5051718;28;20229;-87
2022/11/10 07:19:33;;;;;;;14.23;7.53;;;7.30;99.90;;;;;;5040457;28;20231;-87
2022/11/10 07:22:18;;;;;;;22.13;12.07;;;7.40;99.90;;;;;;5035472;28;20252;-86
2022/11/10 07:25:04;;;;;;;10.13;7.90;;;7.50;99.90;;;;;;5035605;28;20284;-87
2022/11/10 07:27:56;;;;;;;6.47;5.30;;;7.50;99.90;;;;;;5036358;28;20167;-80
2022/11/10 07:30:40;;;;;;;5.70;4.37;;;7.60;99.90;;;;;;5043075;28;20209;-84
2022/11/10 07:33:25;;;;;;;5.67;4.30;;;7.60;99.90;;;;;;5039320;28;20245;-84
2022/11/10 07:36:10;;;;;;;8.07;6.40;;;7.70;99.90;;;;;;5039035;28;20232;-84
2022/11/10 07:38:55;;;;;;;6.93;5.53;;;7.70;99.90;;;;;;5034632;28;20162;-87
2022/11/10 07:41:39;;;;;;;10.50;5.60;;;7.60;99.90;;;;;;5034970;28;20162;-87
2022/11/10 07:44:25;;;;;;;9.37;5.87;;;7.60;99.90;;;;;;5034486;28;20214;-87
2022/11/10 07:47:16;;;;;;;7.03;5.03;;;7.60;99.90;;;;;;5034448;28;20170;-87
2022/11/10 07:50:00;;;;;;;12.13;5.73;;;7.60;99.90;;;;;;5034816;28;20186;-87
2022/11/10 07:52:45;;;;;;;6.03;4.93;;;7.70;99.90;;;;;;5014581;28;20254;-87
2022/11/10 07:55:29;;;;;;;9.33;6.00;;;7.70;99.90;;;;;;5014769;28;20225;-87
2022/11/10 07:58:16;;;;;;;16.53;7.40;;;7.80;99.90;;;;;;5014134;28;20178;-87
2022/11/10 08:01:01;;;;;;;28.40;8.47;;;7.80;99.90;;;;;;5028220;28;20186;-87
2022/11/10 08:03:46;;;;;;;24.10;7.33;;;7.80;99.90;;;;;;5028542;28;20283;-87
2022/11/10 08:06:31;;;;;;;26.90;6.10;;;7.80;99.90;;;;;;5028870;28;20186;-87
2022/11/10 08:09:16;;;;;;;24.00;6.27;;;7.90;99.90;;;;;;5028771;28;20174;-87
2022/11/10 08:12:00;;;;;;;15.23;5.50;;;7.90;99.90;;;;;;5028385;28;20166;-87
2022/11/10 08:14:45;;;;;;;29.20;5.97;;;8.00;99.90;;;;;;5028117;28;20213;-87
2022/11/10 08:17:31;;;;;;;5.27;4.77;;;8.00;99.90;;;;;;5027791;28;20202;-87
2022/11/10 08:20:17;;;;;;;20.80;4.47;;;8.00;99.90;;;;;;5028236;28;20174;-87
2022/11/10 08:23:04;;;;;;;19.27;5.40;;;8.10;99.90;;;;;;5014052;28;20670;-87
2022/11/10 08:25:52;;;;;;;14.60;4.83;;;8.10;99.90;;;;;;5015394;28;20190;-87
2022/11/10 08:28:36;;;;;;;8.30;5.23;;;8.10;99.90;;;;;;5027267;28;20241;-87
2022/11/10 08:31:22;;;;;;;42.80;6.67;;;8.20;99.90;;;;;;5028613;28;20182;-87
2022/11/10 08:34:06;;;;;;;5.70;4.90;;;8.10;99.90;;;;;;5027212;28;20287;-87
2022/11/10 08:37:12;;;;;;;23.50;6.53;;;8.20;99.90;;;;;;5044773;28;20272;-86
2022/11/10 08:40:07;;;;;;;8.30;5.27;;;8.20;99.90;;;;;;5053798;28;20177;-86
2022/11/10 08:42:58;;;;;;;10.17;4.47;;;8.30;99.90;;;;;;5053299;28;20228;-86
2022/11/10 08:45:44;;;;;;;12.47;4.27;;;8.40;99.90;;;;;;5053452;28;20245;-86
2022/11/10 08:48:29;;;;;;;11.13;4.77;;;8.30;99.90;;;;;;5053609;28;20176;-87
2022/11/10 08:51:32;;;;;;;8.37;4.27;;;8.30;99.90;;;;;;5053440;28;20215;-86
2022/11/10 08:54:21;;;;;;;7.40;4.23;;;8.40;99.90;;;;;;5053599;28;20292;-87
2022/11/10 08:57:15;;;;;;;5.17;4.47;;;8.30;99.90;;;;;;5052903;28;20201;-87
2022/11/10 09:00:00;;;;;;;5.47;4.70;;;8.40;99.90;;;;;;5053554;28;20248;-87
2022/11/10 09:02:48;;;;;;;6.93;5.00;;;8.50;99.90;;;;;;5053274;28;20162;-87
2022/11/10 09:05:36;;;;;;;13.43;6.90;;;8.50;99.90;;;;;;5041955;28;20217;-87
2022/11/10 09:08:20;;;;;;;7.87;6.17;;;8.70;99.90;;;;;;5033004;28;20202;-87
2022/11/10 09:11:05;;;;;;;10.17;5.80;;;8.80;99.90;;;;;;5013011;28;20257;-87
2022/11/10 09:13:49;;;;;;;6.43;5.40;;;8.90;99.90;;;;;;5026975;28;20213;-87
2022/11/10 09:16:36;;;;;;;5.30;4.80;;;9.10;99.90;;;;;;5027180;28;20283;-87
2022/11/10 09:19:21;;;;;;;5.73;5.10;;;9.30;99.90;;;;;;5027107;28;20233;-87
2022/11/10 09:22:06;;;;;;;6.47;5.37;;;9.40;99.90;;;;;;5025631;28;20206;-87
2022/11/10 09:24:52;;;;;;;5.83;5.10;;;9.60;99.90;;;;;;5013558;28;20234;-87
2022/11/10 09:27:37;;;;;;;6.43;4.73;;;9.70;99.90;;;;;;5017188;28;20199;-87
2022/11/10 09:30:22;;;;;;;7.67;5.80;;;9.80;99.90;;;;;;5033593;28;20282;-87
2022/11/10 09:33:07;;;;;;;7.07;6.07;;;10.00;99.90;;;;;;5052648;28;20188;-87
2022/11/10 09:35:57;;;;;;;6.10;5.30;;;10.10;99.90;;;;;;5034129;28;20190;-87
2022/11/10 09:38:58;;;;;;;8.83;6.53;;;10.20;99.90;;;;;;5026382;28;20188;-86
2022/11/10 09:41:43;;;;;;;9.80;7.60;;;10.30;99.90;;;;;;5032710;28;20205;-87
2022/11/10 09:44:34;;;;;;;8.73;7.17;;;10.40;99.90;;;;;;5032345;28;20201;-87
2022/11/10 09:47:33;;;;;;;7.37;6.50;;;10.50;99.90;;;;;;5032241;28;20165;-87
2022/11/10 09:50:35;;;;;;;9.33;5.43;;;10.60;99.90;;;;;;5032033;28;20201;-87
2022/11/10 09:53:25;;;;;;;6.37;5.57;;;10.80;99.90;;;;;;5032050;28;20184;-87
2022/11/10 09:56:18;;;;;;;6.80;4.97;;;10.90;99.90;;;;;;5033532;28;20221;-80
2022/11/10 09:59:09;;;;;;;6.20;4.97;;;11.00;99.90;;;;;;5032802;28;20166;-73
2022/11/10 10:02:12;;;;;;;7.40;6.33;;;11.10;99.90;;;;;;5032994;28;20176;-88
2022/11/10 10:05:09;;;;;;;7.67;5.70;;;11.30;99.90;;;;;;5032160;28;20214;-88
2022/11/10 10:08:18;;;;;;;6.50;4.00;;;11.50;99.90;;;;;;5048575;28;20180;-88
2022/11/10 10:11:20;;;;;;;6.33;5.07;;;11.60;99.90;;;;;;5032647;28;20219;-88
2022/11/10 10:14:14;;;;;;;8.07;7.03;;;11.70;99.90;;;;;;5032359;28;20206;-88
2022/11/10 10:17:27;;;;;;;10.13;6.70;;;11.90;99.90;;;;;;5031988;28;20198;-88
2022/11/10 10:20:35;;;;;;;8.23;6.77;;;11.90;99.90;;;;;;5012158;28;20173;-88
2022/11/10 10:23:35;;;;;;;8.77;5.80;;;11.90;99.90;;;;;;5023008;28;20211;-88
2022/11/10 10:26:32;;;;;;;8.97;6.20;;;12.00;99.90;;;;;;5031990;28;20192;-88
2022/11/10 10:29:24;;;;;;;8.13;6.23;;;12.10;99.90;;;;;;5031596;28;20173;-88
2022/11/10 10:32:12;;;;;;;12.67;5.93;;;12.20;99.90;;;;;;5031532;28;20222;-88
2022/11/10 10:34:57;;;;;;;8.73;5.40;;;12.30;99.90;;;;;;5017754;28;20229;-88
2022/11/10 10:37:58;;;;;;;7.70;5.60;;;12.40;99.90;;;;;;5045768;28;20267;-87
2022/11/10 10:40:45;;;;;;;8.90;4.90;;;12.50;99.90;;;;;;5061707;28;20183;-88
2022/11/10 10:43:32;;;;;;;9.20;6.13;;;12.60;99.90;;;;;;5051418;28;20265;-88
2022/11/10 10:46:19;;;;;;;7.07;5.50;;;12.60;99.90;;;;;;5033239;28;20201;-88
2022/11/10 10:49:16;;;;;;;7.97;5.13;;;12.70;99.90;;;;;;5030976;28;20192;-88
2022/11/10 10:52:16;;;;;;;10.63;5.23;;;12.80;99.90;;;;;;5035168;28;20200;-87
2022/11/10 10:55:04;;;;;;;7.60;5.23;;;12.80;99.90;;;;;;5035652;28;20253;-87
2022/11/10 10:58:04;;;;;;;8.50;5.07;;;12.90;99.90;;;;;;5035326;28;20214;-88
2022/11/10 11:01:05;;;;;;;6.43;4.40;;;13.00;99.90;;;;;;5036308;28;20174;-88
2022/11/10 11:03:51;;;;;;;5.50;3.80;;;13.10;99.90;;;;;;5035835;28;20305;-87
2022/11/10 11:06:36;;;;;;;5.57;2.97;;;13.20;99.90;;;;;;5015880;28;20179;-87
2022/11/10 11:09:26;;;;;;;4.23;2.30;;;13.20;99.90;;;;;;5035520;28;20244;-87
2022/11/10 11:12:16;;;;;;;5.80;2.73;;;13.20;99.90;;;;;;5035504;28;20198;-87
2022/11/10 11:15:29;;;;;;;4.90;2.60;;;13.30;99.90;;;;;;5035226;28;20225;-87
2022/11/10 11:18:19;;;;;;;6.37;2.63;;;13.40;99.90;;;;;;5034881;28;20201;-88
2022/11/10 11:21:27;;;;;;;2.93;1.70;;;13.50;99.90;;;;;;5036394;28;20166;-87
2022/11/10 11:24:27;;;;;;;7.20;2.40;;;13.50;99.90;;;;;;5035053;28;20756;-87
2022/11/10 11:27:23;;;;;;;4.83;2.50;;;13.60;99.90;;;;;;5035148;28;20185;-87
2022/11/10 11:30:47;;;;;;;7.33;1.90;;;13.70;99.90;;;;;;5035499;28;20260;-87
2022/11/10 11:33:37;;;;;;;4.83;2.40;;;13.80;99.90;;;;;;5035198;28;20694;-87
2022/11/10 11:36:35;;;;;;;4.97;2.40;;;13.90;99.90;;;;;;5035104;28;20216;-87
2022/11/10 11:39:19;;;;;;;5.07;2.27;;;13.90;99.90;;;;;;5049348;28;20170;-87
2022/11/10 11:42:30;;;;;;;5.97;2.23;;;14.00;99.90;;;;;;5049263;28;20185;-87
2022/11/10 11:45:14;;;;;;;5.60;2.13;;;14.10;99.90;;;;;;5049055;28;20206;-87
2022/11/10 11:48:17;;;;;;;4.37;1.93;;;14.10;99.90;;;;;;5036115;28;20224;-87
2022/11/10 11:51:49;;;;;;;3.10;1.70;;;14.10;99.90;;;;;;5048887;28;20272;-87
2022/11/10 11:55:03;;;;;;;2.73;1.13;;;14.20;99.90;;;;;;5034751;28;20212;-87
2022/11/10 11:58:12;;;;;;;3.77;1.50;;;14.40;99.90;;;;;;5035575;28;20202;-87
2022/11/10 12:00:59;;;;;;;3.63;1.10;;;14.50;99.90;;;;;;5048839;28;20194;-88
2022/11/10 12:04:02;;;;;;;6.10;0.93;;;14.60;99.90;;;;;;5047689;28;20213;-87
2022/11/10 12:06:57;;;;;;;2.13;0.97;;;14.70;99.90;;;;;;5028287;28;20245;-88
2022/11/10 12:09:46;;;;;;;4.13;1.23;;;14.80;99.90;;;;;;5030013;28;20182;-87
2022/11/10 12:12:54;;;;;;;3.93;0.83;;;14.80;99.90;;;;;;5029356;28;20175;-87
2022/11/10 12:15:48;;;;;;;2.23;1.00;;;14.90;99.90;;;;;;5045101;28;20186;-87
2022/11/10 12:18:36;;;;;;;2.00;1.00;;;14.90;99.90;;;;;;5048259;28;20574;-87
2022/11/10 12:21:38;;;;;;;2.33;1.17;;;15.00;99.90;;;;;;5048977;28;20167;-85
2022/11/10 12:24:33;;;;;;;2.40;0.90;;;14.90;99.90;;;;;;5048174;28;20288;-87
2022/11/10 12:27:41;;;;;;;2.90;1.00;;;15.00;99.90;;;;;;5033863;28;20198;-88
2022/11/10 12:30:28;;;;;;;2.27;1.00;;;15.00;99.90;;;;;;5032865;28;20197;-87
2022/11/10 12:33:42;;;;;;;3.90;1.20;;;14.90;99.90;;;;;;5033443;28;20170;-88
2022/11/10 12:36:29;;;;;;;3.37;1.00;;;14.90;99.90;;;;;;5015381;28;20278;-88
2022/11/10 12:39:24;;;;;;;2.67;0.97;;;14.90;99.90;;;;;;5033604;28;20185;-87
2022/11/10 12:42:18;;;;;;;4.93;1.27;;;15.00;99.90;;;;;;5014073;28;20191;-87
2022/11/10 12:45:20;;;;;;;2.87;1.20;;;15.10;99.90;;;;;;5027507;28;20202;-88
2022/11/10 12:48:08;;;;;;;2.33;1.10;;;15.20;99.90;;;;;;5021015;28;20180;-88
2022/11/10 12:51:01;;;;;;;1.77;1.17;;;15.40;99.90;;;;;;5031518;28;20190;-88
2022/11/10 12:53:47;;;;;;;1.83;1.23;;;15.50;99.90;;;;;;5023452;28;20245;-88
2022/11/10 12:56:38;;;;;;;3.73;1.13;;;15.50;99.90;;;;;;5030227;28;20395;-88
2022/11/10 12:59:28;;;;;;;2.37;1.00;;;15.40;99.90;;;;;;5019497;28;20234;-87
2022/11/10 13:02:31;;;;;;;1.23;0.80;;;15.40;99.90;;;;;;5031574;28;20259;-87
2022/11/10 13:05:39;;;;;;;2.93;0.77;;;15.50;99.90;;;;;;5024025;28;20220;-87
2022/11/10 13:08:41;;;;;;;2.70;1.03;;;15.50;99.90;;;;;;5033303;28;20170;-88
2022/11/10 13:11:34;;;;;;;2.57;1.10;;;15.50;99.90;;;;;;5033543;28;20213;-87
2022/11/10 13:14:24;;;;;;;4.33;1.20;;;15.60;99.90;;;;;;5033256;28;20205;-87
2022/11/10 13:17:27;;;;;;;2.30;1.00;;;15.70;99.90;;;;;;5034012;28;20201;-88
2022/11/10 13:20:37;;;;;;;4.03;0.90;;;15.80;99.90;;;;;;5033375;28;20169;-88
2022/11/10 13:23:28;;;;;;;4.73;1.10;;;15.90;99.90;;;;;;5030691;28;20253;-88
2022/11/10 13:26:43;;;;;;;1.63;1.10;;;16.00;99.90;;;;;;5013139;28;20211;-88
2022/11/10 13:29:42;;;;;;;3.10;1.05;;;15.90;99.90;;;;;;5013094;28;20173;-88
2022/11/10 13:32:29;;;;;;;1.03;0.93;;;15.90;99.90;;;;;;5013429;28;20194;-88
2022/11/10 13:35:30;;;;;;;3.10;1.10;;;16.00;99.90;;;;;;5026567;28;20294;-88
2022/11/10 13:38:43;;;;;;;2.40;0.80;;;16.00;99.90;;;;;;5026857;28;20195;-88
2022/11/10 13:41:55;;;;;;;1.95;0.93;;;16.00;99.90;;;;;;5022385;28;20252;-88
2022/11/10 13:44:43;;;;;;;3.73;0.97;;;16.10;99.90;;;;;;5028865;28;20248;-88
2022/11/10 13:47:59;;;;;;;2.27;0.80;;;16.10;99.90;;;;;;5040456;28;20197;-88
2022/11/10 13:51:17;;;;;;;2.00;0.93;;;16.20;99.90;;;;;;5035633;28;20190;-88
2022/11/10 13:54:24;;;;;;;1.57;0.73;;;16.20;99.90;;;;;;5025850;28;20212;-88
2022/11/10 13:57:30;;;;;;;1.80;0.70;;;16.30;99.90;;;;;;5038648;28;20221;-88
2022/11/10 14:00:17;;;;;;;2.15;0.80;;;16.30;99.90;;;;;;5038573;28;20201;-87
2022/11/10 14:03:07;;;;;;;1.75;0.95;;;16.30;99.90;;;;;;5055063;28;20337;-88
2022/11/10 14:06:08;;;;;;;3.38;0.82;;;16.30;99.90;;;;;;5036566;28;20248;-87
2022/11/10 14:09:10;;;;;;;2.42;1.10;;;16.30;99.90;;;;;;5037095;28;20245;-88
2022/11/10 14:12:02;;;;;;;2.17;0.95;;;16.20;99.90;;;;;;5048469;28;20226;-88
2022/11/10 14:15:13;;;;;;;2.47;0.80;;;16.30;99.90;;;;;;5042772;28;20289;-88
2022/11/10 14:18:00;;;;;;;1.90;0.93;;;16.20;99.90;;;;;;5024780;28;20274;-88
2022/11/10 14:20:53;;;;;;;2.27;0.70;;;16.20;99.90;;;;;;5037913;28;20221;-88
2022/11/10 14:24:10;;;;;;;1.75;1.10;;;16.20;99.90;;;;;;5031935;28;20233;-88
2022/11/10 14:26:58;;;;;;;2.30;0.90;;;16.00;99.90;;;;;;5036933;28;20180;-87
2022/11/10 14:29:43;;;;;;;2.88;0.88;;;15.90;99.90;;;;;;5034443;28;20202;-88
2022/11/10 14:32:28;;;;;;;1.77;0.90;;;15.60;99.90;;;;;;5026650;28;20283;-88
2022/11/10 14:35:22;;;;;;;2.85;0.90;;;15.50;99.90;;;;;;5049166;28;20221;-88
2022/11/10 14:38:20;;;;;;;1.47;0.87;;;15.40;99.90;;;;;;5038304;28;20256;-88
2022/11/10 14:41:14;;;;;;;2.33;1.10;;;15.30;99.90;;;;;;5035467;28;20201;-88
2022/11/10 14:44:04;;;;;;;1.93;0.77;;;15.20;99.90;;;;;;5035556;28;20260;-88
2022/11/10 14:46:49;;;;;;;3.70;1.00;;;15.10;99.90;;;;;;5028315;28;20255;-87
2022/11/10 14:49:36;;;;;;;1.83;0.80;;;15.10;99.90;;;;;;5052403;28;20274;-88
2022/11/10 14:52:21;;;;;;;1.93;0.80;;;15.10;99.90;;;;;;5044187;28;20248;-88
2022/11/10 14:55:08;;;;;;;1.53;0.80;;;15.10;99.90;;;;;;5033666;28;20272;-88
2022/11/10 14:58:08;;;;;;;2.30;0.90;;;15.10;99.90;;;;;;5036069;28;20229;-86
2022/11/10 15:00:56;;;;;;;3.90;0.80;;;15.00;99.90;;;;;;5059057;28;20285;-87
2022/11/10 15:03:42;;;;;;;2.23;1.00;;;14.90;99.90;;;;;;5036373;28;20210;-88